^^
Refsnesbakken Borettslag Station Historical Data
 
Daily Summary for May 04, 2026 Units:  Metric    English   Both
Daily Weekly Monthly Yearly
  Current: High: Low: Average:
Temperature: 8.3 °C 9.3 °C 8.3 °C 8.9 °C
Dew Point: 6.9 °C 8.3 °C 6.9 °C 7.7 °C
Humidity: 91% 94% 91% 92%
Wind Speed: 7.4km/h 11.1km/h 5.6km/h 8km/h
Wind Gust: 8km/h 11.3km/h - -
WindSW - - South
Pressure: 1007.2 hPa 1009.5 hPa 1006.9 hPa -
Precipitation: 0.0 mm      
 
 
Tabular Data for May 04, 2026
Time Temperature Dew Point Pressure Wind Wind Speed Wind Gust Humidity Rainfall Rate (Hourly) solar
00:09 9.2 °C 8.2 °C 1009.5 hPa South 7.4 km/h 8 km/h 93% 0.0 mm 0 W/m2
00:14 9.2 °C 8.2 °C 1009.5 hPa South 7.4 km/h 8 km/h 93% 0.0 mm 0 W/m2
00:19 9.3 °C 8.2 °C 1009.5 hPa South 7.4 km/h 8 km/h 93% 0.0 mm 0 W/m2
00:24 9.3 °C 8.2 °C 1009.5 hPa South 7.4 km/h 8 km/h 93% 0.0 mm 0 W/m2
00:29 9.3 °C 8.2 °C 1009.4 hPa South 7.4 km/h 8 km/h 93% 0.0 mm 0 W/m2
00:34 9.3 °C 8.2 °C 1009.4 hPa SSE 8.9 km/h 9.3 km/h 93% 0.0 mm 0 W/m2
00:39 9.3 °C 8.2 °C 1009.4 hPa SSE 9.3 km/h 9.7 km/h 93% 0.0 mm 0 W/m2
00:44 9.3 °C 8.2 °C 1009.3 hPa SSE 9.3 km/h 9.7 km/h 93% 0.0 mm 0 W/m2
00:49 9.3 °C 8.2 °C 1009.4 hPa SSE 9.3 km/h 9.7 km/h 93% 0.0 mm 0 W/m2
00:54 9.3 °C 8.3 °C 1009.3 hPa SSE 9.3 km/h 9.7 km/h 93.2% 0.0 mm 0 W/m2
00:59 9.3 °C 8.3 °C 1009.3 hPa SSE 9.3 km/h 9.7 km/h 93.1% 0.0 mm 0 W/m2
01:04 9.3 °C 8.3 °C 1009.4 hPa SSE 10.7 km/h 11.1 km/h 93% 0.0 mm 0 W/m2
01:09 9.3 °C 8.3 °C 1009.4 hPa SSE 11.1 km/h 11.3 km/h 93% 0.0 mm 0 W/m2
01:14 9.3 °C 8.2 °C 1009.4 hPa SSE 11.1 km/h 11.3 km/h 93% 0.0 mm 0 W/m2
01:19 9.3 °C 8.2 °C 1009.3 hPa SSE 11.1 km/h 11.3 km/h 93% 0.0 mm 0 W/m2
01:24 9.3 °C 8.2 °C 1009.2 hPa SSE 11.1 km/h 11.3 km/h 93% 0.0 mm 0 W/m2
01:29 9.3 °C 8.2 °C 1009.1 hPa SSE 11.1 km/h 11.3 km/h 93% 0.0 mm 0 W/m2
01:34 9.3 °C 8.3 °C 1009.0 hPa SSE 9.6 km/h 11.3 km/h 93% 0.0 mm 0 W/m2
01:39 9.3 °C 8.2 °C 1008.9 hPa SSE 7.4 km/h 11.3 km/h 93% 0.0 mm 0 W/m2
01:44 9.3 °C 8.2 °C 1008.8 hPa SSE 7.4 km/h 8 km/h 93% 0.0 mm 0 W/m2
01:49 9.2 °C 8.2 °C 1008.8 hPa SSE 7.4 km/h 8 km/h 93.5% 0.0 mm 0 W/m2
01:54 9.2 °C 8.3 °C 1008.7 hPa SSE 7.4 km/h 8 km/h 94% 0.0 mm 0 W/m2
01:59 9.1 °C 8.3 °C 1008.7 hPa SSE 7.4 km/h 8 km/h 94% 0.0 mm 0 W/m2
02:04 9.1 °C 8.2 °C 1008.7 hPa South 7.4 km/h 8 km/h 94% 0.0 mm 0 W/m2
02:09 9 °C 8.1 °C 1008.7 hPa South 7.4 km/h 8 km/h 93.5% 0.0 mm 0 W/m2
02:14 8.9 °C 7.9 °C 1008.6 hPa South 7.4 km/h 8 km/h 93% 0.0 mm 0 W/m2
02:19 8.9 °C 7.9 °C 1008.6 hPa South 7.4 km/h 8 km/h 93% 0.0 mm 0 W/m2
02:24 9 °C 7.9 °C 1008.6 hPa South 7.4 km/h 8 km/h 93% 0.0 mm 0 W/m2
02:29 9 °C 7.9 °C 1008.5 hPa South 7.4 km/h 8 km/h 93% 0.0 mm 0 W/m2
02:34 9 °C 8 °C 1008.4 hPa South 8.9 km/h 9.3 km/h 93% 0.0 mm 0 W/m2
02:39 9 °C 8 °C 1008.4 hPa South 9.3 km/h 9.7 km/h 93% 0.0 mm 0 W/m2
02:44 9 °C 8 °C 1008.3 hPa South 9.3 km/h 9.7 km/h 93% 0.0 mm 0 W/m2
02:49 9 °C 7.9 °C 1008.3 hPa South 9.3 km/h 9.7 km/h 93% 0.0 mm 0 W/m2
02:54 9 °C 7.9 °C 1008.1 hPa South 9.3 km/h 9.7 km/h 93% 0.0 mm 0 W/m2
02:59 9 °C 7.9 °C 1008.1 hPa South 9.3 km/h 9.7 km/h 93% 0.0 mm 0 W/m2
03:04 8.9 °C 7.9 °C 1008.1 hPa South 7.8 km/h 9.7 km/h 93% 0.0 mm 0 W/m2
03:09 8.9 °C 7.9 °C 1008.0 hPa South 5.6 km/h 9.7 km/h 93% 0.0 mm 0 W/m2
03:14 8.9 °C 7.8 °C 1008.0 hPa South 5.6 km/h 5.6 km/h 93% 0.0 mm 0 W/m2
03:19 8.8 °C 7.8 °C 1008.0 hPa South 5.6 km/h 5.6 km/h 93% 0.0 mm 0 W/m2
03:24 8.8 °C 7.8 °C 1007.9 hPa South 5.6 km/h 5.6 km/h 93% 0.0 mm 0 W/m2
03:29 8.8 °C 7.8 °C 1007.9 hPa South 5.6 km/h 5.6 km/h 92.8% 0.0 mm 0 W/m2
03:34 8.8 °C 7.6 °C 1007.7 hPa South 8.5 km/h 9.3 km/h 92.2% 0.0 mm 0 W/m2
03:39 8.8 °C 7.6 °C 1007.6 hPa South 9.3 km/h 9.7 km/h 92% 0.0 mm 0 W/m2
03:44 8.8 °C 7.6 °C 1007.7 hPa South 9.3 km/h 9.7 km/h 92% 0.0 mm 0 W/m2
03:49 8.9 °C 7.5 °C 1007.7 hPa South 9.3 km/h 9.7 km/h 91.1% 0.0 mm 0 W/m2
03:54 8.9 °C 7.5 °C 1007.7 hPa South 9.3 km/h 9.7 km/h 91% 0.0 mm 0 W/m2
03:59 8.9 °C 7.5 °C 1007.8 hPa South 9.3 km/h 9.7 km/h 91% 0.0 mm 0 W/m2
04:04 8.9 °C 7.5 °C 1007.8 hPa SSW 8.5 km/h 9.7 km/h 91% 0.0 mm 0 W/m2
04:09 8.9 °C 7.5 °C 1007.7 hPa SSW 7.4 km/h 9.7 km/h 91% 0.0 mm 0 W/m2
04:14 8.9 °C 7.5 °C 1007.6 hPa SSW 7.4 km/h 8 km/h 91% 0.0 mm 0 W/m2
04:19 8.9 °C 7.5 °C 1007.5 hPa SSW 7.4 km/h 8 km/h 91% 0.0 mm 0 W/m2
04:24 8.9 °C 7.5 °C 1007.5 hPa SSW 7.4 km/h 8 km/h 91% 0.0 mm 0 W/m2
04:29 8.9 °C 7.5 °C 1007.5 hPa SSW 7.4 km/h 8 km/h 91% 0.0 mm 0 W/m2
04:34 8.9 °C 7.5 °C 1007.5 hPa SSW 7.4 km/h 8 km/h 91% 0.0 mm 0 W/m2
04:39 8.9 °C 7.5 °C 1007.4 hPa SSW 7.4 km/h 8 km/h 91% 0.0 mm 0 W/m2
04:44 8.8 °C 7.4 °C 1007.4 hPa SSW 7.4 km/h 8 km/h 91% 0.0 mm 0 W/m2
04:49 8.8 °C 7.4 °C 1007.4 hPa SSW 7.4 km/h 8 km/h 91% 0.0 mm 0 W/m2
04:54 8.8 °C 7.4 °C 1007.4 hPa SSW 7.4 km/h 8 km/h 91% 0.0 mm 0 W/m2
04:59 8.7 °C 7.4 °C 1007.4 hPa SSW 7.4 km/h 8 km/h 91% 0.0 mm 0 W/m2
05:04 8.7 °C 7.3 °C 1007.4 hPa SSW 8.9 km/h 9.3 km/h 91% 0.0 mm 0 W/m2
05:09 8.7 °C 7.3 °C 1007.4 hPa SSW 9.3 km/h 9.7 km/h 91% 0.0 mm 0 W/m2
05:14 8.7 °C 7.3 °C 1007.3 hPa SSW 9.3 km/h 9.7 km/h 91% 0.0 mm 0 W/m2
05:19 8.7 °C 7.4 °C 1007.2 hPa SSW 9.3 km/h 9.7 km/h 91.2% 0.0 mm 0 W/m2
05:24 8.7 °C 7.4 °C 1007.2 hPa SSW 9.3 km/h 9.7 km/h 91.3% 0.0 mm 0 W/m2
05:29 8.7 °C 7.4 °C 1007.2 hPa SSW 9.3 km/h 9.7 km/h 91.5% 0.0 mm 0 W/m2
05:34 8.7 °C 7.4 °C 1007.2 hPa SSW 8.6 km/h 9.7 km/h 91.7% 0.0 mm 0 W/m2
05:39 8.7 °C 7.5 °C 1007.1 hPa SSW 7.4 km/h 9.7 km/h 92% 0.0 mm 7 W/m2
05:44 8.7 °C 7.4 °C 1007.0 hPa SSW 7.4 km/h 8 km/h 91.9% 0.0 mm 9 W/m2
05:49 8.7 °C 7.3 °C 1007.0 hPa SSW 7.4 km/h 8 km/h 91% 0.0 mm 9 W/m2
05:54 8.6 °C 7.2 °C 1007.1 hPa SSW 7.4 km/h 8 km/h 91% 0.0 mm 11 W/m2
05:59 8.6 °C 7.2 °C 1007.1 hPa SSW 7.4 km/h 8 km/h 91% 0.0 mm 21 W/m2
06:04 8.6 °C 7.2 °C 1007.0 hPa SSW 7.4 km/h 8 km/h 91% 0.0 mm 26 W/m2
06:09 8.5 °C 7.2 °C 1007.0 hPa SSW 7.4 km/h 8 km/h 91% 0.0 mm 26 W/m2
06:14 8.5 °C 7.1 °C 1007.0 hPa SSW 7.4 km/h 8 km/h 91% 0.0 mm 30 W/m2
06:19 8.5 °C 7.2 °C 1007.0 hPa SSW 7.4 km/h 8 km/h 91.3% 0.0 mm 32 W/m2
06:24 8.5 °C 7.2 °C 1007.0 hPa SSW 7.4 km/h 8 km/h 91.2% 0.0 mm 35 W/m2
06:29 8.5 °C 7.1 °C 1006.9 hPa SSW 7.4 km/h 8 km/h 91.1% 0.0 mm 46 W/m2
06:34 8.5 °C 7.1 °C 1007.0 hPa SW 6.7 km/h 8 km/h 91.1% 0.0 mm 46 W/m2
06:39 8.5 °C 7.3 °C 1006.9 hPa SW 5.6 km/h 8 km/h 91.8% 0.0 mm 42 W/m2
06:44 8.5 °C 7.2 °C 1007.0 hPa SW 5.6 km/h 5.6 km/h 91.3% 0.0 mm 46 W/m2
06:49 8.6 °C 7.2 °C 1007.0 hPa SW 5.6 km/h 5.6 km/h 91% 0.0 mm 58 W/m2
06:54 8.5 °C 7.2 °C 1007.1 hPa SW 5.6 km/h 5.6 km/h 91% 0.0 mm 58 W/m2
06:59 8.5 °C 7.1 °C 1007.1 hPa SW 5.6 km/h 5.6 km/h 91% 0.0 mm 60 W/m2
07:04 8.5 °C 7.1 °C 1007.2 hPa SW 7 km/h 7.4 km/h 91% 0.0 mm 53 W/m2
07:09 8.5 °C 7.1 °C 1007.1 hPa SW 7.4 km/h 8 km/h 91% 0.0 mm 53 W/m2
07:14 8.4 °C 7 °C 1007.1 hPa SW 7.4 km/h 8 km/h 91% 0.0 mm 42 W/m2
07:19 8.3 °C 6.9 °C 1007.2 hPa SW 7.4 km/h 8 km/h 91% 0.0 mm 54 W/m2
Refsnesbakken, Moss, Norway
Compliments of Weather Underground - 2 mb